createdAt,value
2019-03-22T00:00:33.479Z,7.51
2019-03-22T00:01:33.395Z,7.51
2019-03-22T00:02:33.427Z,7.50
2019-03-22T00:03:33.402Z,7.59
2019-03-22T00:04:33.418Z,7.56
2019-03-22T00:05:33.377Z,7.56
2019-03-22T00:06:33.389Z,7.59
2019-03-22T00:07:33.355Z,7.61
2019-03-22T00:08:33.339Z,7.62
2019-03-22T00:09:33.332Z,7.64
2019-03-22T00:10:33.313Z,7.61
2019-03-22T00:11:33.354Z,7.67
2019-03-22T00:12:33.390Z,7.69
2019-03-22T00:13:33.285Z,7.70
2019-03-22T00:14:33.255Z,7.70
2019-03-22T00:15:33.290Z,7.69
2019-03-22T00:16:33.244Z,7.84
2019-03-22T00:17:33.247Z,7.84
2019-03-22T00:18:33.242Z,7.84
2019-03-22T00:19:33.220Z,7.95
2019-03-22T00:20:33.228Z,7.96
2019-03-22T00:21:33.182Z,7.98
2019-03-22T00:22:33.158Z,7.88
2019-03-22T00:23:33.270Z,7.88
2019-03-22T00:24:33.215Z,7.90
2019-03-22T00:25:33.183Z,7.87
2019-03-22T00:26:33.141Z,7.91
2019-03-22T00:27:33.136Z,7.88
2019-03-22T00:28:33.109Z,7.96
2019-03-22T00:29:33.156Z,7.98
2019-03-22T00:30:33.117Z,8.09
2019-03-22T00:31:33.088Z,8.08
2019-03-22T00:32:33.070Z,8.06
2019-03-22T00:33:33.044Z,8.05
2019-03-22T00:34:33.079Z,8.08
2019-03-22T00:35:33.032Z,8.09
2019-03-22T00:36:33.054Z,8.09
2019-03-22T00:37:33.048Z,8.17
2019-03-22T00:38:33.016Z,8.14
2019-03-22T00:39:33.017Z,8.17
2019-03-22T00:40:32.982Z,8.21
2019-03-22T00:41:32.968Z,8.09
2019-03-22T00:42:32.983Z,8.09
2019-03-22T00:43:32.970Z,8.24
2019-03-22T00:44:33.022Z,8.23
2019-03-22T00:45:32.934Z,8.17
2019-03-22T00:46:32.924Z,8.23
2019-03-22T00:47:32.920Z,8.17
2019-03-22T00:48:32.937Z,8.23
2019-03-22T00:49:32.897Z,8.31
2019-03-22T00:50:41.806Z,8.18
2019-03-22T00:51:32.843Z,8.17
2019-03-22T00:52:32.858Z,8.27
2019-03-22T00:53:32.841Z,8.27
2019-03-22T00:54:32.821Z,8.31
2019-03-22T00:55:32.817Z,8.31
2019-03-22T00:56:32.846Z,8.20
2019-03-22T00:57:32.790Z,8.23
2019-03-22T00:58:32.770Z,8.35
2019-03-22T00:59:32.767Z,8.27
2019-03-22T01:00:32.748Z,8.31
2019-03-22T01:01:32.762Z,8.28
2019-03-22T01:02:32.767Z,8.26
2019-03-22T01:03:32.742Z,8.23
2019-03-22T01:04:32.756Z,8.27
2019-03-22T01:05:32.708Z,8.34
2019-03-22T01:06:32.727Z,8.32
2019-03-22T01:07:32.692Z,8.35
2019-03-22T01:08:32.680Z,8.39
2019-03-22T01:09:32.654Z,8.44
2019-03-22T01:10:32.663Z,8.45
2019-03-22T01:11:32.697Z,8.46
2019-03-22T01:12:32.675Z,8.46
2019-03-22T01:13:32.612Z,8.45
2019-03-22T01:14:32.610Z,8.46
2019-03-22T01:15:32.626Z,8.42
2019-03-22T01:16:32.628Z,8.46
2019-03-22T01:17:32.579Z,8.52
2019-03-22T01:18:41.838Z,8.54
2019-03-22T01:19:32.563Z,8.50
2019-03-22T01:20:32.562Z,8.63
2019-03-22T01:21:32.543Z,8.61
2019-03-22T01:22:32.865Z,8.63
2019-03-22T01:23:32.509Z,8.57
2019-03-22T01:24:32.510Z,8.59
2019-03-22T01:25:32.510Z,8.57
2019-03-22T01:26:32.473Z,8.60
2019-03-22T01:27:40.290Z,8.54
2019-03-22T01:28:33.459Z,8.61
2019-03-22T01:29:32.459Z,8.68
2019-03-22T01:30:32.453Z,8.68
2019-03-22T01:31:32.431Z,8.64
2019-03-22T01:32:32.414Z,8.66
2019-03-22T01:33:32.433Z,8.71
2019-03-22T01:34:32.393Z,8.66
2019-03-22T01:35:32.406Z,8.61
2019-03-22T01:36:32.415Z,8.69
2019-03-22T01:37:32.375Z,8.69
2019-03-22T01:38:32.375Z,8.69
2019-03-22T01:39:32.337Z,8.68
2019-03-22T01:40:32.324Z,8.69
2019-03-22T01:41:32.339Z,8.69
2019-03-22T01:42:32.328Z,8.71
2019-03-22T01:43:32.312Z,8.69
2019-03-22T01:44:32.332Z,8.63
2019-03-22T01:45:32.292Z,8.66
2019-03-22T01:46:32.263Z,8.69
2019-03-22T01:47:32.282Z,8.64
2019-03-22T01:48:32.267Z,8.64
2019-03-22T01:49:32.281Z,8.64
2019-03-22T01:50:32.238Z,8.71
2019-03-22T01:51:32.221Z,8.68
2019-03-22T01:52:32.218Z,8.66
2019-03-22T01:53:32.193Z,8.72
2019-03-22T01:54:32.195Z,8.66
2019-03-22T01:55:32.195Z,8.69
2019-03-22T01:56:32.167Z,8.68
2019-03-22T01:57:32.160Z,8.69
2019-03-22T01:58:32.160Z,8.69
2019-03-22T01:59:32.130Z,8.66
2019-03-22T02:00:32.130Z,8.63
2019-03-22T02:01:32.120Z,8.69
2019-03-22T02:02:32.092Z,8.66
2019-03-22T02:03:32.094Z,8.63
2019-03-22T02:04:32.091Z,8.69
2019-03-22T02:05:32.156Z,8.75
2019-03-22T02:06:32.044Z,8.74
2019-03-22T02:07:32.043Z,8.69
2019-03-22T02:08:32.063Z,8.71
2019-03-22T02:09:32.012Z,8.71
2019-03-22T02:10:32.002Z,8.64
2019-03-22T02:11:32.042Z,8.71
2019-03-22T02:12:32.012Z,8.69
2019-03-22T02:13:31.991Z,8.74
2019-03-22T02:14:31.956Z,8.69
2019-03-22T02:15:31.948Z,8.66
2019-03-22T02:16:31.967Z,8.75
2019-03-22T02:17:31.933Z,8.66
2019-03-22T02:18:31.920Z,8.74
2019-03-22T02:19:31.910Z,8.77
2019-03-22T02:20:31.908Z,8.74
2019-03-22T02:21:31.905Z,8.72
2019-03-22T02:22:31.907Z,8.77
2019-03-22T02:23:31.876Z,8.72
2019-03-22T02:24:31.865Z,8.79
2019-03-22T02:25:31.864Z,8.75
2019-03-22T02:26:31.844Z,8.74
2019-03-22T02:27:31.839Z,8.72
2019-03-22T02:28:31.827Z,8.79
2019-03-22T02:29:31.823Z,8.78
2019-03-22T02:30:31.815Z,8.78
2019-03-22T02:31:31.782Z,8.84
2019-03-22T02:32:31.782Z,8.77
2019-03-22T02:33:31.778Z,8.82
2019-03-22T02:34:31.773Z,8.84
2019-03-22T02:35:31.750Z,8.84
2019-03-22T02:36:31.741Z,8.89
2019-03-22T02:37:31.726Z,8.89
2019-03-22T02:38:31.765Z,8.87
2019-03-22T02:39:31.819Z,8.90
2019-03-22T02:40:31.697Z,8.82
2019-03-22T02:41:31.687Z,8.87
2019-03-22T02:42:31.684Z,9.02
2019-03-22T02:43:31.671Z,8.97
2019-03-22T02:44:31.664Z,8.95
2019-03-22T02:45:31.633Z,8.90
2019-03-22T02:46:31.645Z,8.92
2019-03-22T02:47:31.665Z,8.93
2019-03-22T02:48:31.638Z,8.95
2019-03-22T02:49:31.609Z,9.05
2019-03-22T02:50:31.586Z,9.02
2019-03-22T02:51:31.581Z,8.96
2019-03-22T02:52:31.561Z,9.02
2019-03-22T02:53:31.587Z,9.03
2019-03-22T02:54:31.565Z,9.03
2019-03-22T02:55:31.543Z,9.08
2019-03-22T02:56:31.532Z,9.11
2019-03-22T02:57:31.540Z,9.12
2019-03-22T02:58:31.502Z,9.16
2019-03-22T02:59:31.519Z,9.13
2019-03-22T03:00:31.473Z,9.16
2019-03-22T03:01:31.484Z,9.16
2019-03-22T03:02:31.471Z,9.15
2019-03-22T03:03:31.443Z,9.18
2019-03-22T03:04:31.472Z,9.15
2019-03-22T03:05:31.425Z,9.13
2019-03-22T03:06:31.422Z,9.22
2019-03-22T03:07:31.410Z,9.22
2019-03-22T03:08:31.386Z,9.15
2019-03-22T03:09:31.392Z,9.16
2019-03-22T03:10:31.402Z,9.18
2019-03-22T03:11:31.363Z,9.16
2019-03-22T03:12:31.342Z,9.21
2019-03-22T03:13:31.346Z,9.19
2019-03-22T03:14:31.348Z,9.21
2019-03-22T03:15:31.337Z,9.30
2019-03-22T03:16:31.352Z,9.27
2019-03-22T03:17:31.321Z,9.26
2019-03-22T03:18:31.289Z,9.29
2019-03-22T03:19:31.274Z,9.29
2019-03-22T03:20:31.275Z,9.31
2019-03-22T03:21:31.253Z,9.27
2019-03-22T03:22:31.253Z,9.27
2019-03-22T03:23:31.232Z,9.29
2019-03-22T03:24:31.225Z,9.40
2019-03-22T03:25:31.229Z,9.37
2019-03-22T03:26:31.219Z,9.36
2019-03-22T03:27:31.196Z,9.30
2019-03-22T03:28:37.108Z,9.33
2019-03-22T03:29:32.159Z,9.29
2019-03-22T03:30:31.222Z,9.27
2019-03-22T03:31:31.196Z,9.34
2019-03-22T03:32:31.139Z,9.39
2019-03-22T03:33:31.135Z,9.29
2019-03-22T03:34:31.119Z,9.45
2019-03-22T03:35:31.104Z,9.42
2019-03-22T03:36:34.625Z,9.40
2019-03-22T03:37:31.075Z,9.40
2019-03-22T03:38:31.058Z,9.31
2019-03-22T03:39:31.064Z,9.33
2019-03-22T03:40:31.070Z,9.39
2019-03-22T03:41:31.066Z,9.45
2019-03-22T03:42:31.024Z,9.44
2019-03-22T03:43:31.042Z,9.44
2019-03-22T03:44:31.000Z,9.54
2019-03-22T03:45:30.996Z,9.42
2019-03-22T03:46:30.975Z,9.40
2019-03-22T03:47:31.001Z,9.52
2019-03-22T03:48:30.992Z,9.48
2019-03-22T03:49:30.994Z,9.40
2019-03-22T03:50:30.942Z,9.47
2019-03-22T03:51:30.929Z,9.48
2019-03-22T03:52:30.914Z,9.47
2019-03-22T03:53:30.944Z,9.49
2019-03-22T03:54:30.904Z,9.45
2019-03-22T03:55:30.934Z,9.47
2019-03-22T03:56:30.873Z,9.48
2019-03-22T03:57:30.861Z,9.45
2019-03-22T03:58:30.887Z,9.40
2019-03-22T03:59:30.851Z,9.45
2019-03-22T04:00:30.822Z,9.44
2019-03-22T04:01:30.897Z,9.48
2019-03-22T04:02:30.855Z,9.48
2019-03-22T04:03:30.829Z,9.52
2019-03-22T04:04:30.808Z,9.49
2019-03-22T04:05:30.796Z,9.49
2019-03-22T04:06:30.798Z,9.51
2019-03-22T04:07:30.759Z,9.48
2019-03-22T04:08:30.786Z,9.48
2019-03-22T04:09:30.754Z,9.48
2019-03-22T04:10:30.739Z,9.44
2019-03-22T04:11:30.738Z,9.42
2019-03-22T04:12:30.714Z,9.47
2019-03-22T04:13:30.714Z,9.40
2019-03-22T04:14:30.732Z,9.47
2019-03-22T04:15:30.685Z,9.42
2019-03-22T04:16:30.691Z,9.51
2019-03-22T04:17:30.665Z,9.37
2019-03-22T04:18:30.652Z,9.48
2019-03-22T04:19:30.639Z,9.45
2019-03-22T04:20:30.633Z,9.52
2019-03-22T04:21:30.619Z,9.44
2019-03-22T04:22:30.609Z,9.55
2019-03-22T04:23:30.587Z,9.62
2019-03-22T04:24:30.682Z,9.55
2019-03-22T04:25:30.702Z,9.48
2019-03-22T04:26:30.575Z,9.54
2019-03-22T04:27:30.571Z,9.51
2019-03-22T04:28:30.549Z,9.51
2019-03-22T04:29:30.545Z,9.54
2019-03-22T04:30:30.512Z,9.44
2019-03-22T04:31:30.538Z,9.42
2019-03-22T04:32:30.521Z,9.45
2019-03-22T04:33:30.502Z,9.47
2019-03-22T04:34:30.485Z,9.48
2019-03-22T04:35:30.483Z,9.47
2019-03-22T04:36:30.500Z,9.48
2019-03-22T04:37:30.437Z,9.45
2019-03-22T04:38:30.448Z,9.45
2019-03-22T04:39:30.442Z,9.39
2019-03-22T04:40:30.441Z,9.44
2019-03-22T04:41:30.427Z,9.42
2019-03-22T04:42:30.386Z,9.51
2019-03-22T04:43:30.385Z,9.56
2019-03-22T04:44:30.367Z,9.52
2019-03-22T04:45:30.362Z,9.48
2019-03-22T04:46:30.360Z,9.51
2019-03-22T04:47:30.367Z,9.51
2019-03-22T04:48:30.321Z,9.51
2019-03-22T04:49:30.363Z,9.58
2019-03-22T04:50:30.318Z,9.48
2019-03-22T04:51:30.316Z,9.54
2019-03-22T04:52:30.328Z,9.64
2019-03-22T04:53:30.273Z,9.54
2019-03-22T04:54:30.278Z,9.59
2019-03-22T04:55:30.264Z,9.52
2019-03-22T04:56:30.265Z,9.55
2019-03-22T04:57:30.246Z,9.49
2019-03-22T04:58:30.232Z,9.51
2019-03-22T04:59:30.213Z,9.55
2019-03-22T05:00:30.207Z,9.48
2019-03-22T05:01:30.195Z,9.66
2019-03-22T05:02:30.224Z,9.63
2019-03-22T05:03:30.184Z,9.63
2019-03-22T05:04:30.161Z,9.59
2019-03-22T05:05:30.153Z,9.62
2019-03-22T05:06:30.142Z,9.62
2019-03-22T05:07:30.164Z,9.56
2019-03-22T05:08:30.122Z,9.58
2019-03-22T05:09:30.107Z,9.56
2019-03-22T05:10:30.105Z,9.56
2019-03-22T05:11:30.093Z,9.52
2019-03-22T05:12:30.098Z,9.54
2019-03-22T05:13:30.080Z,9.54
2019-03-22T05:14:30.047Z,9.45
2019-03-22T05:15:30.045Z,9.48
2019-03-22T05:16:30.032Z,9.45
2019-03-22T05:17:30.025Z,9.42
2019-03-22T05:18:30.066Z,9.49
2019-03-22T05:19:30.083Z,9.47
2019-03-22T05:20:29.990Z,9.42
2019-03-22T05:21:29.993Z,9.62
2019-03-22T05:22:29.981Z,9.49
2019-03-22T05:23:29.987Z,9.44
2019-03-22T05:24:30.101Z,9.48
2019-03-22T05:25:30.061Z,9.45
2019-03-22T05:26:29.977Z,9.36
2019-03-22T05:27:30.829Z,9.47
2019-03-22T05:28:30.854Z,9.42
2019-03-22T05:29:30.992Z,9.40
2019-03-22T05:30:29.925Z,9.49
2019-03-22T05:31:29.978Z,9.51
2019-03-22T05:32:30.020Z,9.42
2019-03-22T05:33:30.083Z,9.49
2019-03-22T05:34:29.966Z,9.51
2019-03-22T05:35:29.935Z,9.58
2019-03-22T05:36:29.949Z,9.56
2019-03-22T05:37:29.825Z,9.49
2019-03-22T05:38:29.819Z,9.51
2019-03-22T05:39:29.794Z,9.59
2019-03-22T05:40:29.861Z,9.64
2019-03-22T05:41:29.781Z,9.56
2019-03-22T05:42:29.770Z,9.62
2019-03-22T05:43:29.751Z,9.62
2019-03-22T05:44:29.753Z,9.69
2019-03-22T05:45:29.811Z,9.58
2019-03-22T05:46:30.060Z,9.62
2019-03-22T05:47:29.805Z,9.59
2019-03-22T05:48:29.876Z,9.64
2019-03-22T05:49:29.753Z,9.63
2019-03-22T05:50:29.856Z,9.63
2019-03-22T05:51:29.848Z,9.56
2019-03-22T05:52:29.758Z,9.66
2019-03-22T05:53:29.677Z,9.67
2019-03-22T05:54:29.641Z,9.62
2019-03-22T05:55:29.692Z,9.66
2019-03-22T05:56:29.687Z,9.63
2019-03-22T05:57:29.700Z,9.62
2019-03-22T05:58:29.740Z,9.58
2019-03-22T05:59:37.681Z,9.63
2019-03-22T06:00:30.566Z,9.62
2019-03-22T06:01:29.640Z,9.73
2019-03-22T06:02:29.543Z,9.76
2019-03-22T06:03:29.541Z,9.72
2019-03-22T06:04:29.516Z,9.72
2019-03-22T06:05:29.510Z,9.77
2019-03-22T06:06:29.565Z,9.70
2019-03-22T06:07:29.500Z,9.80
2019-03-22T06:08:29.480Z,9.85
2019-03-22T06:09:29.476Z,9.76
2019-03-22T06:10:29.465Z,9.82
2019-03-22T06:11:29.451Z,9.87
2019-03-22T06:12:29.460Z,9.87
2019-03-22T06:13:29.439Z,9.90
2019-03-22T06:14:29.419Z,9.92
2019-03-22T06:15:29.415Z,9.91
2019-03-22T06:16:29.395Z,9.91
2019-03-22T06:17:29.411Z,9.90
2019-03-22T06:18:29.380Z,9.92
2019-03-22T06:19:29.380Z,9.85
2019-03-22T06:20:29.380Z,9.76
2019-03-22T06:21:29.383Z,9.92
2019-03-22T06:22:29.348Z,9.91
2019-03-22T06:23:29.347Z,9.88
2019-03-22T06:24:29.347Z,9.91
2019-03-22T06:25:29.313Z,9.92
2019-03-22T06:26:29.283Z,9.91
2019-03-22T06:27:29.307Z,9.91
2019-03-22T06:28:29.286Z,9.87
2019-03-22T06:29:29.292Z,9.88
2019-03-22T06:30:29.268Z,9.94
2019-03-22T06:31:29.258Z,9.82
2019-03-22T06:32:29.223Z,9.82
2019-03-22T06:33:29.241Z,9.80
2019-03-22T06:34:29.206Z,9.80
2019-03-22T06:35:29.207Z,9.90
2019-03-22T06:36:29.205Z,9.94
2019-03-22T06:37:29.816Z,9.85
2019-03-22T06:38:29.256Z,9.94
2019-03-22T06:39:29.161Z,9.91
2019-03-22T06:40:29.140Z,9.87
2019-03-22T06:41:29.257Z,9.85
2019-03-22T06:42:29.136Z,9.82
2019-03-22T06:43:29.109Z,9.82
2019-03-22T06:44:29.287Z,9.82
2019-03-22T06:45:29.077Z,9.82
2019-03-22T06:46:29.121Z,9.80
2019-03-22T06:47:29.103Z,9.90
2019-03-22T06:48:29.074Z,9.91
2019-03-22T06:49:29.045Z,10.02
2019-03-22T06:50:29.040Z,9.97
2019-03-22T06:51:29.023Z,9.99
2019-03-22T06:52:29.023Z,9.95
2019-03-22T06:53:29.044Z,9.92
2019-03-22T06:54:31.770Z,9.92
2019-03-22T06:55:29.029Z,9.92
2019-03-22T06:56:29.014Z,10.00
2019-03-22T06:57:28.958Z,9.97
2019-03-22T06:58:29.828Z,9.91
2019-03-22T06:59:28.950Z,10.00
2019-03-22T07:00:28.927Z,10.00
2019-03-22T07:01:28.939Z,9.95
2019-03-22T07:02:28.930Z,10.07
2019-03-22T07:03:28.907Z,10.10
2019-03-22T07:04:28.884Z,9.99
2019-03-22T07:05:28.877Z,10.02
2019-03-22T07:06:28.887Z,10.12
2019-03-22T07:07:28.924Z,10.13
2019-03-22T07:08:28.834Z,10.10
2019-03-22T07:09:28.836Z,10.20
2019-03-22T07:10:28.929Z,10.18
2019-03-22T07:11:28.814Z,10.12
2019-03-22T07:12:28.802Z,10.13
2019-03-22T07:13:28.788Z,10.17
2019-03-22T07:14:28.788Z,10.18
2019-03-22T07:15:28.791Z,10.17
2019-03-22T07:16:28.817Z,10.24
2019-03-22T07:17:28.789Z,10.13
2019-03-22T07:18:28.733Z,10.15
2019-03-22T07:19:28.736Z,10.18
2019-03-22T07:20:28.714Z,10.18
2019-03-22T07:21:28.701Z,10.24
2019-03-22T07:22:28.817Z,10.21
2019-03-22T07:23:28.798Z,10.21
2019-03-22T07:24:28.726Z,10.20
2019-03-22T07:25:28.669Z,10.27
2019-03-22T07:26:30.101Z,10.27
2019-03-22T07:27:28.678Z,10.23
2019-03-22T07:28:28.634Z,10.24
2019-03-22T07:29:28.626Z,10.25
2019-03-22T07:30:28.603Z,10.24
2019-03-22T07:31:28.605Z,10.24
2019-03-22T07:32:28.609Z,10.28
2019-03-22T07:33:29.384Z,10.31
2019-03-22T07:34:28.776Z,10.38
2019-03-22T07:35:28.551Z,10.41
2019-03-22T07:36:28.555Z,10.39
2019-03-22T07:37:28.531Z,10.42
2019-03-22T07:38:29.800Z,10.45
2019-03-22T07:39:29.329Z,10.36
2019-03-22T07:40:28.506Z,10.41
2019-03-22T07:41:28.516Z,10.41
2019-03-22T07:42:28.516Z,10.33
2019-03-22T07:43:28.466Z,10.49
2019-03-22T07:44:28.477Z,10.45
2019-03-22T07:45:28.447Z,10.49
2019-03-22T07:46:28.448Z,10.43
2019-03-22T07:47:29.474Z,10.48
2019-03-22T07:48:28.429Z,10.49
2019-03-22T07:49:28.404Z,10.48
2019-03-22T07:50:28.422Z,10.46
2019-03-22T07:51:28.406Z,10.49
2019-03-22T07:52:28.434Z,10.57
2019-03-22T07:53:28.366Z,10.55
2019-03-22T07:54:28.415Z,10.58
2019-03-22T07:55:28.348Z,10.55
2019-03-22T07:56:28.317Z,10.64
2019-03-22T07:57:28.342Z,10.61
2019-03-22T07:58:28.318Z,10.62
2019-03-22T07:59:28.303Z,10.61
2019-03-22T08:00:31.003Z,10.62
2019-03-22T08:01:28.291Z,10.61
2019-03-22T08:02:28.262Z,10.62
2019-03-22T08:03:28.263Z,10.68
2019-03-22T08:04:28.372Z,10.68
2019-03-22T08:05:28.293Z,10.75
2019-03-22T08:06:28.248Z,10.69
2019-03-22T08:07:28.233Z,10.76
2019-03-22T08:08:28.209Z,10.75
2019-03-22T08:09:28.208Z,10.72
2019-03-22T08:10:28.272Z,10.77
2019-03-22T08:11:28.248Z,10.71
2019-03-22T08:12:28.165Z,10.68
2019-03-22T08:13:28.167Z,10.75
2019-03-22T08:14:28.165Z,10.75
2019-03-22T08:15:28.123Z,10.76
2019-03-22T08:16:28.218Z,10.82
2019-03-22T08:17:28.107Z,10.79
2019-03-22T08:18:28.227Z,10.83
2019-03-22T08:19:28.146Z,10.87
2019-03-22T08:20:28.149Z,10.83
2019-03-22T08:21:28.091Z,10.83
2019-03-22T08:22:31.486Z,10.90
2019-03-22T08:23:28.094Z,10.84
2019-03-22T08:24:28.073Z,10.95
2019-03-22T08:25:28.263Z,10.92
2019-03-22T08:26:28.044Z,10.92
2019-03-22T08:27:28.053Z,10.87
2019-03-22T08:28:28.020Z,10.92
2019-03-22T08:29:28.206Z,10.92
2019-03-22T08:30:27.972Z,10.90
2019-03-22T08:31:27.944Z,10.97
2019-03-22T08:32:28.020Z,11.02
2019-03-22T08:33:28.053Z,11.00
2019-03-22T08:34:27.938Z,11.12
2019-03-22T08:35:27.921Z,11.08
2019-03-22T08:36:27.899Z,11.13
2019-03-22T08:37:27.904Z,11.13
2019-03-22T08:38:27.912Z,11.10
2019-03-22T08:39:27.928Z,11.19
2019-03-22T08:40:30.185Z,11.16
2019-03-22T08:41:28.846Z,11.22
2019-03-22T08:42:27.839Z,11.16
2019-03-22T08:43:27.915Z,11.18
2019-03-22T08:44:27.867Z,11.13
2019-03-22T08:45:29.760Z,11.20
2019-03-22T08:46:27.864Z,11.22
2019-03-22T08:47:33.752Z,11.26
2019-03-22T08:48:28.816Z,11.23
2019-03-22T08:49:27.877Z,11.26
2019-03-22T08:50:27.751Z,11.31
2019-03-22T08:51:29.882Z,11.34
2019-03-22T08:52:27.729Z,11.27
2019-03-22T08:53:27.718Z,11.27
2019-03-22T08:54:27.773Z,11.27
2019-03-22T08:55:27.713Z,11.27
2019-03-22T08:56:27.690Z,11.30
2019-03-22T08:57:27.705Z,11.31
2019-03-22T08:58:27.688Z,11.35
2019-03-22T08:59:27.706Z,11.38
2019-03-22T09:00:38.523Z,11.44
2019-03-22T09:01:28.628Z,11.48
2019-03-22T09:02:27.653Z,11.43
2019-03-22T09:03:27.616Z,11.48
2019-03-22T09:04:27.693Z,11.51
2019-03-22T09:05:27.599Z,11.49
2019-03-22T09:06:27.589Z,11.48
2019-03-22T09:07:27.617Z,11.44
2019-03-22T09:08:27.567Z,11.53
2019-03-22T09:09:27.596Z,11.51
2019-03-22T09:10:27.651Z,11.56
2019-03-22T09:11:27.590Z,11.53
2019-03-22T09:12:27.601Z,11.58
2019-03-22T09:13:27.517Z,11.52
2019-03-22T09:14:27.527Z,11.58
2019-03-22T09:15:40.217Z,11.59
2019-03-22T09:16:30.735Z,11.51
2019-03-22T09:17:27.517Z,11.59
2019-03-22T09:18:27.541Z,11.55
2019-03-22T09:19:27.488Z,11.59
2019-03-22T09:20:27.518Z,11.62
2019-03-22T09:21:27.435Z,11.65
2019-03-22T09:22:27.463Z,11.63
2019-03-22T09:23:27.425Z,11.59
2019-03-22T09:24:38.551Z,11.73
2019-03-22T09:25:28.380Z,11.63
2019-03-22T09:26:27.380Z,11.70
2019-03-22T09:27:27.382Z,11.68
2019-03-22T09:28:27.363Z,11.68
2019-03-22T09:29:27.427Z,11.74
2019-03-22T09:30:27.348Z,11.68
2019-03-22T09:31:27.389Z,11.67
2019-03-22T09:32:27.346Z,11.63
2019-03-22T09:33:27.329Z,11.68
2019-03-22T09:34:33.522Z,11.70
2019-03-22T09:35:28.429Z,11.73
2019-03-22T09:36:27.302Z,11.81
2019-03-22T09:37:27.265Z,11.74
2019-03-22T09:38:28.589Z,11.77
2019-03-22T09:39:27.277Z,11.91
2019-03-22T09:40:27.337Z,11.91
2019-03-22T09:41:27.194Z,11.95
2019-03-22T09:42:27.360Z,11.86
2019-03-22T09:43:27.371Z,12.02
2019-03-22T09:44:28.358Z,11.97
2019-03-22T09:45:27.185Z,11.97
2019-03-22T09:46:27.154Z,12.00
2019-03-22T09:47:27.168Z,11.96
2019-03-22T09:48:27.152Z,12.02
2019-03-22T09:49:27.121Z,11.97
2019-03-22T09:50:27.139Z,12.05
2019-03-22T09:51:27.102Z,12.05
2019-03-22T09:52:27.126Z,11.96
2019-03-22T09:53:30.162Z,12.02
2019-03-22T09:54:27.070Z,12.05
2019-03-22T09:55:27.074Z,12.11
2019-03-22T09:56:27.090Z,12.11
2019-03-22T09:57:27.059Z,12.11
2019-03-22T09:58:27.250Z,12.08
2019-03-22T09:59:26.998Z,12.15
2019-03-22T10:00:27.020Z,12.15
2019-03-22T10:01:27.102Z,12.12
2019-03-22T10:02:26.998Z,12.23
2019-03-22T10:03:27.055Z,12.29
2019-03-22T10:04:27.005Z,12.30
2019-03-22T10:05:27.042Z,12.33
2019-03-22T10:06:26.966Z,12.36
2019-03-22T10:07:26.954Z,12.37
2019-03-22T10:08:26.976Z,12.37
2019-03-22T10:09:26.960Z,12.37
2019-03-22T10:10:26.913Z,12.47
2019-03-22T10:11:26.907Z,12.39
2019-03-22T10:12:26.883Z,12.45
2019-03-22T10:13:26.885Z,12.48
2019-03-22T10:14:26.954Z,12.44
2019-03-22T10:15:26.883Z,12.65
2019-03-22T10:16:26.832Z,12.62
2019-03-22T10:17:26.848Z,12.62
2019-03-22T10:18:26.859Z,12.54
2019-03-22T10:19:26.799Z,12.61
2019-03-22T10:20:26.850Z,12.68
2019-03-22T10:21:26.780Z,12.48
2019-03-22T10:22:26.775Z,12.53
2019-03-22T10:23:26.753Z,12.61
2019-03-22T10:24:26.771Z,12.55
2019-03-22T10:25:26.793Z,12.61
2019-03-22T10:26:26.766Z,12.57
2019-03-22T10:27:26.733Z,12.55
2019-03-22T10:28:26.742Z,12.63
2019-03-22T10:29:26.699Z,12.63
2019-03-22T10:30:26.809Z,12.48
2019-03-22T10:31:36.494Z,12.57
2019-03-22T10:32:27.662Z,12.55
2019-03-22T10:33:26.646Z,12.57
2019-03-22T10:34:26.720Z,12.57
2019-03-22T10:35:26.826Z,12.58
2019-03-22T10:36:26.611Z,12.62
2019-03-22T10:37:26.607Z,12.54
2019-03-22T10:38:31.873Z,12.50
2019-03-22T10:39:27.680Z,12.61
2019-03-22T10:40:26.580Z,12.61
2019-03-22T10:41:26.578Z,12.61
2019-03-22T10:42:26.549Z,12.55
2019-03-22T10:43:26.656Z,12.54
2019-03-22T10:44:26.554Z,12.63
2019-03-22T10:45:26.546Z,12.58
2019-03-22T10:46:26.726Z,12.54
2019-03-22T10:47:26.493Z,12.61
2019-03-22T10:48:26.484Z,12.66
2019-03-22T10:49:26.476Z,12.61
2019-03-22T10:50:26.550Z,12.54
2019-03-22T10:51:26.611Z,12.58
2019-03-22T10:52:27.602Z,12.66
2019-03-22T10:53:26.451Z,12.65
2019-03-22T10:54:26.438Z,12.70
2019-03-22T10:55:30.377Z,12.63
2019-03-22T10:56:26.484Z,12.70
2019-03-22T10:57:26.396Z,12.69
2019-03-22T10:58:27.378Z,12.70
2019-03-22T10:59:26.436Z,12.70
2019-03-22T11:00:26.356Z,12.68
2019-03-22T11:01:26.342Z,12.57
2019-03-22T11:02:26.365Z,12.55
2019-03-22T11:03:26.343Z,12.57
2019-03-22T11:04:26.342Z,12.62
2019-03-22T11:05:26.338Z,12.50
2019-03-22T11:06:26.795Z,12.55
2019-03-22T11:07:26.283Z,12.53
2019-03-22T11:08:26.372Z,12.40
2019-03-22T11:09:26.255Z,12.48
2019-03-22T11:10:26.263Z,12.53
2019-03-22T11:11:26.262Z,12.51
2019-03-22T11:12:26.226Z,12.45
2019-03-22T11:13:26.227Z,12.57
2019-03-22T11:14:26.233Z,12.61
2019-03-22T11:15:26.187Z,12.57
2019-03-22T11:16:26.189Z,12.70
2019-03-22T11:17:26.191Z,12.69
2019-03-22T11:18:26.304Z,12.76
2019-03-22T11:19:26.143Z,12.70
2019-03-22T11:20:26.148Z,12.88
2019-03-22T11:21:26.154Z,12.87
2019-03-22T11:22:26.120Z,12.81
2019-03-22T11:23:26.288Z,12.87
2019-03-22T11:24:26.122Z,12.73
2019-03-22T11:25:26.077Z,12.83
2019-03-22T11:26:26.100Z,12.87
2019-03-22T11:27:26.203Z,12.93
2019-03-22T11:28:26.043Z,12.88
2019-03-22T11:29:26.080Z,12.90
2019-03-22T11:30:26.062Z,12.91
2019-03-22T11:31:28.635Z,12.94
2019-03-22T11:32:26.014Z,13.09
2019-03-22T11:33:25.991Z,13.21
2019-03-22T11:34:26.005Z,13.23
2019-03-22T11:35:25.982Z,13.24
2019-03-22T11:36:25.988Z,13.33
2019-03-22T11:37:25.957Z,13.37
2019-03-22T11:38:25.970Z,13.39
2019-03-22T11:39:25.975Z,13.30
2019-03-22T11:40:25.953Z,13.30
2019-03-22T11:41:25.936Z,13.23
2019-03-22T11:42:25.928Z,13.20
2019-03-22T11:43:25.886Z,13.20
2019-03-22T11:44:25.914Z,13.21
2019-03-22T11:45:25.912Z,13.21
2019-03-22T11:46:25.865Z,13.20
2019-03-22T11:47:25.850Z,13.24
2019-03-22T11:48:25.859Z,13.20
2019-03-22T11:49:25.856Z,13.20
2019-03-22T11:50:25.844Z,13.24
2019-03-22T11:51:25.855Z,13.20
2019-03-22T11:52:25.833Z,13.36
2019-03-22T11:53:25.836Z,13.20
2019-03-22T11:54:25.849Z,13.20
2019-03-22T11:55:25.759Z,13.17
2019-03-22T11:56:25.837Z,13.17
2019-03-22T11:57:25.766Z,13.31
2019-03-22T11:58:25.744Z,13.39
2019-03-22T11:59:25.744Z,13.42
2019-03-22T12:00:25.721Z,13.49
2019-03-22T12:01:25.712Z,13.57
2019-03-22T12:02:25.739Z,13.55
2019-03-22T12:03:25.684Z,13.57
2019-03-22T12:04:25.661Z,13.76
2019-03-22T12:05:25.687Z,13.70
2019-03-22T12:06:27.294Z,13.73
2019-03-22T12:07:25.627Z,13.71
2019-03-22T12:08:25.676Z,13.80
2019-03-22T12:09:25.626Z,13.78
2019-03-22T12:10:25.611Z,13.75
2019-03-22T12:11:25.586Z,13.86
2019-03-22T12:12:25.631Z,13.87
2019-03-22T12:13:25.630Z,13.94
2019-03-22T12:14:25.574Z,13.95
2019-03-22T12:15:25.576Z,13.97
2019-03-22T12:16:25.585Z,13.95
2019-03-22T12:17:25.517Z,14.01
2019-03-22T12:18:25.541Z,14.07
2019-03-22T12:19:25.695Z,14.15
2019-03-22T12:20:25.556Z,14.16
2019-03-22T12:21:25.574Z,14.16
2019-03-22T12:22:25.577Z,14.20
2019-03-22T12:23:25.484Z,14.20
2019-03-22T12:24:25.476Z,14.19
2019-03-22T12:25:25.497Z,14.18
2019-03-22T12:26:25.415Z,14.05
2019-03-22T12:27:25.433Z,14.08
2019-03-22T12:28:25.440Z,14.01
2019-03-22T12:29:25.447Z,13.98
2019-03-22T12:30:25.395Z,13.97
2019-03-22T12:31:25.375Z,13.93
2019-03-22T12:32:32.205Z,13.95
2019-03-22T12:33:26.355Z,14.05
2019-03-22T12:34:25.338Z,14.11
2019-03-22T12:35:25.398Z,14.19
2019-03-22T12:36:25.312Z,14.19
2019-03-22T12:37:25.307Z,14.22
2019-03-22T12:38:25.315Z,14.22
2019-03-22T12:39:25.296Z,14.28
2019-03-22T12:40:25.300Z,14.25
2019-03-22T12:41:25.351Z,14.23
2019-03-22T12:42:25.296Z,14.30
2019-03-22T12:43:25.299Z,14.18
2019-03-22T12:44:25.227Z,14.33
2019-03-22T12:45:25.377Z,14.37
2019-03-22T12:46:25.213Z,14.38
2019-03-22T12:47:25.206Z,14.43
2019-03-22T12:48:25.219Z,14.43
2019-03-22T12:49:25.211Z,14.40
2019-03-22T12:50:25.191Z,14.43
2019-03-22T12:51:25.189Z,14.30
2019-03-22T12:52:25.160Z,14.33
2019-03-22T12:53:25.138Z,14.34
2019-03-22T12:54:25.132Z,14.36
2019-03-22T12:55:25.126Z,14.31
2019-03-22T12:56:25.179Z,14.44
2019-03-22T12:57:25.137Z,14.44
2019-03-22T12:58:25.072Z,14.45
2019-03-22T12:59:25.082Z,14.40
2019-03-22T13:00:25.067Z,14.40
2019-03-22T13:01:25.072Z,14.49
2019-03-22T13:02:25.040Z,14.45
2019-03-22T13:03:25.052Z,14.48
2019-03-22T13:04:25.020Z,14.53
2019-03-22T13:05:25.008Z,14.56
2019-03-22T13:06:25.000Z,14.52